Time;durP1;ratioP1;P1;durP2;ratioP2;P2;SDS_P1;SDS_P2;PMS_P1;PMS_P2;Temp;Humidity;BMP_temperature;BMP_pressure;BME280_temperature;BME280_humidity;BME280_pressure;Samples;Min_cycle;Max_cycle;Signal;HPM_P1;HPM_P2
2022/04/09 00:01:04;;;;;;;7.63;3.53;;;;;;;;;;5026797;28;20043;-40
2022/04/09 00:03:30;;;;;;;7.55;2.95;;;;;;;;;;5026560;28;20021;-38
2022/04/09 00:05:56;;;;;;;12.90;6.88;;;;;;;;;;5026333;28;20567;-42
2022/04/09 00:08:22;;;;;;;5.15;2.17;;;;;;;;;;5026380;28;20055;-39
2022/04/09 00:10:48;;;;;;;5.32;2.65;;;;;;;;;;5004548;28;20105;-46
2022/04/09 00:13:14;;;;;;;7.68;3.60;;;;;;;;;;5026561;28;20033;-44
2022/04/09 00:15:41;;;;;;;8.45;1.85;;;;;;;;;;5025838;28;20605;-40
2022/04/09 00:18:07;;;;;;;4.07;1.88;;;;;;;;;;5026452;28;20036;-50
2022/04/09 00:20:36;;;;;;;7.00;3.17;;;;;;;;;;5026179;28;20036;-45
2022/04/09 00:23:02;;;;;;;8.50;3.53;;;;;;;;;;5026324;28;20046;-40
2022/04/09 00:25:28;;;;;;;3.47;1.42;;;;;;;;;;5025583;28;20282;-50
2022/04/09 00:27:54;;;;;;;6.13;2.70;;;;;;;;;;5025471;28;20029;-39
2022/04/09 00:30:20;;;;;;;5.55;2.20;;;;;;;;;;5025635;28;20029;-39
2022/04/09 00:32:46;;;;;;;14.15;5.75;;;;;;;;;;5009641;28;20036;-47
2022/04/09 00:35:13;;;;;;;8.18;3.70;;;;;;;;;;5026111;28;20075;-46
2022/04/09 00:37:42;;;;;;;3.58;1.55;;;;;;;;;;5026072;28;20552;-43
2022/04/09 00:40:09;;;;;;;6.85;2.70;;;;;;;;;;5026154;28;20029;-46
2022/04/09 00:42:35;;;;;;;3.22;1.38;;;;;;;;;;5025368;28;20445;-50
2022/04/09 00:45:01;;;;;;;7.45;2.25;;;;;;;;;;5026146;28;20167;-47
2022/04/09 00:47:27;;;;;;;6.65;2.95;;;;;;;;;;5025616;28;20631;-40
2022/04/09 00:49:53;;;;;;;7.05;3.08;;;;;;;;;;5025423;28;20144;-43
2022/04/09 00:52:20;;;;;;;5.00;3.08;;;;;;;;;;5025370;28;20790;-40
2022/04/09 00:54:48;;;;;;;4.45;1.90;;;;;;;;;;5025079;28;20025;-52
2022/04/09 00:57:17;;;;;;;6.43;3.20;;;;;;;;;;5025111;28;20032;-48
2022/04/09 00:59:46;;;;;;;4.82;2.40;;;;;;;;;;5025258;28;20432;-45
2022/04/09 01:02:13;;;;;;;4.95;2.35;;;;;;;;;;5025038;28;20539;-40
2022/04/09 01:04:43;;;;;;;10.73;3.05;;;;;;;;;;5025023;28;20025;-39
2022/04/09 01:07:09;;;;;;;4.57;2.28;;;;;;;;;;5025002;28;20528;-49
2022/04/09 01:09:35;;;;;;;6.75;3.22;;;;;;;;;;5027336;28;20116;-39
2022/04/09 01:12:04;;;;;;;2.67;1.60;;;;;;;;;;5053067;28;20033;-41
2022/04/09 01:14:33;;;;;;;4.13;1.80;;;;;;;;;;5053664;28;20032;-39
2022/04/09 01:16:59;;;;;;;7.97;2.78;;;;;;;;;;5053626;28;20028;-39
2022/04/09 01:19:27;;;;;;;5.20;2.22;;;;;;;;;;5052430;28;20017;-39
2022/04/09 01:22:00;;;;;;;2.88;1.23;;;;;;;;;;5052250;28;20040;-39
2022/04/09 01:24:28;;;;;;;6.00;1.42;;;;;;;;;;5053572;28;20032;-39
2022/04/09 01:26:54;;;;;;;5.55;2.75;;;;;;;;;;5053011;28;20432;-38
2022/04/09 01:29:21;;;;;;;4.90;2.20;;;;;;;;;;5053278;28;20041;-44
2022/04/09 01:31:49;;;;;;;4.65;1.52;;;;;;;;;;5053253;28;20040;-38
2022/04/09 01:34:15;;;;;;;6.45;2.00;;;;;;;;;;5053412;28;20056;-39
2022/04/09 01:36:41;;;;;;;3.35;1.50;;;;;;;;;;5053550;28;20100;-42
2022/04/09 01:39:07;;;;;;;6.30;3.03;;;;;;;;;;5053447;28;20511;-47
2022/04/09 01:41:34;;;;;;;5.10;2.08;;;;;;;;;;5053069;28;20035;-44
2022/04/09 01:44:00;;;;;;;3.50;1.60;;;;;;;;;;5049956;28;20033;-47
2022/04/09 01:46:26;;;;;;;6.70;2.05;;;;;;;;;;5033552;28;20029;-52
2022/04/09 01:48:56;;;;;;;5.88;2.25;;;;;;;;;;5033495;28;20060;-53
2022/04/09 01:51:23;;;;;;;9.20;3.87;;;;;;;;;;5033432;28;20022;-53
2022/04/09 01:53:49;;;;;;;3.70;1.38;;;;;;;;;;5033206;28;20492;-57
2022/04/09 01:56:15;;;;;;;5.10;2.50;;;;;;;;;;5033120;28;20026;-42
2022/04/09 01:58:41;;;;;;;3.85;1.75;;;;;;;;;;5033300;28;20068;-55
2022/04/09 02:01:07;;;;;;;4.47;2.42;;;;;;;;;;5033221;28;20025;-49
2022/04/09 02:03:34;;;;;;;5.18;2.78;;;;;;;;;;5033180;28;20056;-47
2022/04/09 02:06:00;;;;;;;5.05;2.85;;;;;;;;;;5032733;28;20408;-53
2022/04/09 02:08:29;;;;;;;5.28;2.13;;;;;;;;;;5033283;28;20029;-52
2022/04/09 02:10:58;;;;;;;2.85;1.33;;;;;;;;;;5040933;28;20116;-50
2022/04/09 02:13:25;;;;;;;6.32;2.03;;;;;;;;;;5052067;28;20064;-44
2022/04/09 02:15:51;;;;;;;4.63;1.63;;;;;;;;;;5057156;28;20025;-43
2022/04/09 02:18:17;;;;;;;5.72;2.05;;;;;;;;;;5056810;28;20457;-46
2022/04/09 02:20:43;;;;;;;11.00;4.20;;;;;;;;;;5056718;28;20025;-39
2022/04/09 02:23:11;;;;;;;8.85;4.63;;;;;;;;;;5036625;28;20026;-53
2022/04/09 02:25:37;;;;;;;4.32;1.98;;;;;;;;;;5036616;28;20055;-45
2022/04/09 02:28:04;;;;;;;4.70;2.30;;;;;;;;;;5036713;28;20083;-39
2022/04/09 02:30:30;;;;;;;6.10;2.15;;;;;;;;;;5018467;28;20025;-48
2022/04/09 02:32:56;;;;;;;4.32;2.28;;;;;;;;;;5036675;28;20120;-42
2022/04/09 02:35:28;;;;;;;6.00;2.50;;;;;;;;;;5036664;28;20500;-40
2022/04/09 02:37:57;;;;;;;6.00;1.90;;;;;;;;;;5036728;28;20504;-52
2022/04/09 02:40:24;;;;;;;9.48;4.57;;;;;;;;;;5036309;28;20401;-40
2022/04/09 02:42:51;;;;;;;6.45;2.17;;;;;;;;;;5036274;28;20021;-53
2022/04/09 02:45:21;;;;;;;6.65;2.22;;;;;;;;;;5036400;28;20543;-49
2022/04/09 02:47:49;;;;;;;3.08;1.75;;;;;;;;;;5036126;28;20033;-43
2022/04/09 02:50:15;;;;;;;7.43;2.30;;;;;;;;;;5035543;28;20014;-51
2022/04/09 02:52:41;;;;;;;10.55;3.97;;;;;;;;;;5034487;28;20500;-57
2022/04/09 02:55:08;;;;;;;6.70;2.65;;;;;;;;;;5036010;28;20037;-52
2022/04/09 02:57:36;;;;;;;7.70;1.83;;;;;;;;;;5036403;28;20029;-49
2022/04/09 03:00:05;;;;;;;5.50;2.78;;;;;;;;;;5036094;28;20042;-47
2022/04/09 03:02:31;;;;;;;3.80;1.50;;;;;;;;;;5047106;28;20477;-53
2022/04/09 03:04:57;;;;;;;8.73;3.65;;;;;;;;;;5056199;28;20033;-50
2022/04/09 03:07:23;;;;;;;6.80;3.47;;;;;;;;;;5055955;28;20057;-48
2022/04/09 03:09:49;;;;;;;5.57;2.50;;;;;;;;;;5055598;28;20052;-52
2022/04/09 03:12:16;;;;;;;6.63;3.72;;;;;;;;;;5055735;28;20447;-46
2022/04/09 03:14:44;;;;;;;3.97;1.77;;;;;;;;;;5055735;28;20021;-51
2022/04/09 03:17:10;;;;;;;5.50;1.63;;;;;;;;;;5055875;28;20538;-50
2022/04/09 03:19:36;;;;;;;4.38;1.55;;;;;;;;;;5055816;28;20021;-39
2022/04/09 03:22:05;;;;;;;7.13;3.53;;;;;;;;;;5055008;28;20024;-53
2022/04/09 03:24:31;;;;;;;7.80;2.67;;;;;;;;;;5038546;28;20024;-53
2022/04/09 03:26:57;;;;;;;6.25;1.88;;;;;;;;;;5035550;28;20054;-52
2022/04/09 03:29:23;;;;;;;8.23;2.88;;;;;;;;;;5035632;28;20072;-48
2022/04/09 03:31:49;;;;;;;6.22;3.13;;;;;;;;;;5035476;28;20117;-46
2022/04/09 03:34:15;;;;;;;3.85;1.75;;;;;;;;;;5035615;28;20030;-52
2022/04/09 03:36:42;;;;;;;9.48;2.05;;;;;;;;;;5035531;28;20086;-54
2022/04/09 03:39:11;;;;;;;6.13;2.28;;;;;;;;;;5035624;28;20018;-39
2022/04/09 03:41:37;;;;;;;11.40;4.55;;;;;;;;;;5035393;28;20043;-43
2022/04/09 03:44:03;;;;;;;6.65;2.42;;;;;;;;;;5035250;28;20469;-53
2022/04/09 03:46:29;;;;;;;3.78;1.85;;;;;;;;;;5035310;28;20100;-45
2022/04/09 03:48:55;;;;;;;2.25;1.30;;;;;;;;;;5035310;28;20036;-38
2022/04/09 03:51:23;;;;;;;5.65;1.95;;;;;;;;;;5035157;28;20436;-50
2022/04/09 03:53:49;;;;;;;11.88;5.15;;;;;;;;;;5052885;28;20075;-53
2022/04/09 03:56:16;;;;;;;7.25;3.50;;;;;;;;;;5054986;28;20028;-44
2022/04/09 03:58:43;;;;;;;13.13;5.43;;;;;;;;;;5055100;28;20082;-40
2022/04/09 04:01:10;;;;;;;6.03;2.00;;;;;;;;;;5055111;28;20036;-41
2022/04/09 04:03:36;;;;;;;6.53;2.80;;;;;;;;;;5054780;28;20063;-49
2022/04/09 04:06:03;;;;;;;11.20;6.40;;;;;;;;;;5054905;28;20043;-52
2022/04/09 04:08:29;;;;;;;10.18;4.50;;;;;;;;;;5054963;28;20029;-49
2022/04/09 04:10:55;;;;;;;4.63;2.00;;;;;;;;;;5050099;28;20492;-48
2022/04/09 04:13:21;;;;;;;5.85;2.38;;;;;;;;;;5044480;28;20044;-50
2022/04/09 04:15:47;;;;;;;6.05;2.30;;;;;;;;;;5043367;28;20053;-53
2022/04/09 04:18:13;;;;;;;3.25;1.50;;;;;;;;;;5044921;28;20063;-40
2022/04/09 04:20:39;;;;;;;5.93;2.10;;;;;;;;;;5044218;28;20020;-43
2022/04/09 04:23:06;;;;;;;9.38;2.45;;;;;;;;;;5042887;28;20484;-52
2022/04/09 04:25:32;;;;;;;7.10;2.38;;;;;;;;;;5042649;28;20049;-53
2022/04/09 04:27:58;;;;;;;26.02;15.77;;;;;;;;;;5041476;28;20142;-41
2022/04/09 04:30:24;;;;;;;14.38;6.35;;;;;;;;;;5045334;28;20087;-51
2022/04/09 04:32:50;;;;;;;31.40;17.15;;;;;;;;;;5053711;28;20453;-40
2022/04/09 04:35:16;;;;;;;19.95;10.45;;;;;;;;;;5036359;28;20021;-50
2022/04/09 04:37:43;;;;;;;10.07;3.30;;;;;;;;;;5054276;28;20392;-38
2022/04/09 04:40:10;;;;;;;20.20;8.50;;;;;;;;;;5053646;28;20104;-50
2022/04/09 04:42:36;;;;;;;22.85;7.78;;;;;;;;;;5054161;28;20351;-48
2022/04/09 04:45:03;;;;;;;15.70;7.00;;;;;;;;;;5036086;28;20079;-44
2022/04/09 04:47:29;;;;;;;10.77;4.63;;;;;;;;;;5054303;28;20047;-51
2022/04/09 04:49:55;;;;;;;8.23;3.85;;;;;;;;;;5054110;28;20024;-50
2022/04/09 04:52:21;;;;;;;14.88;7.65;;;;;;;;;;5053644;28;20469;-39
2022/04/09 04:54:47;;;;;;;11.85;2.75;;;;;;;;;;5053789;28;20037;-41
2022/04/09 04:57:13;;;;;;;10.63;5.03;;;;;;;;;;5054031;28;20029;-47
2022/04/09 04:59:40;;;;;;;9.00;3.97;;;;;;;;;;5053826;28;20489;-37
2022/04/09 05:02:06;;;;;;;15.95;6.78;;;;;;;;;;5048735;28;20098;-37
2022/04/09 05:04:32;;;;;;;11.52;3.38;;;;;;;;;;5044363;28;20033;-39
2022/04/09 05:06:58;;;;;;;7.80;3.50;;;;;;;;;;5042513;28;20014;-37
2022/04/09 05:09:24;;;;;;;15.27;7.40;;;;;;;;;;5037898;28;20042;-42
2022/04/09 05:11:50;;;;;;;11.52;5.32;;;;;;;;;;5033632;28;20030;-39
2022/04/09 05:14:17;;;;;;;6.97;3.20;;;;;;;;;;5033605;28;20025;-40
2022/04/09 05:16:43;;;;;;;13.85;4.63;;;;;;;;;;5033826;28;20049;-41
2022/04/09 05:19:09;;;;;;;7.78;3.72;;;;;;;;;;5033875;28;20032;-43
2022/04/09 05:21:35;;;;;;;7.50;2.20;;;;;;;;;;5033545;28;20083;-43
2022/04/09 05:24:01;;;;;;;6.85;2.58;;;;;;;;;;5033188;28;20028;-48
2022/04/09 05:26:27;;;;;;;5.35;2.22;;;;;;;;;;5033158;28;20404;-44
2022/04/09 05:28:54;;;;;;;8.57;2.42;;;;;;;;;;5033378;28;20156;-39
2022/04/09 05:31:25;;;;;;;8.75;2.25;;;;;;;;;;5033376;28;20104;-41
2022/04/09 05:33:51;;;;;;;18.83;6.53;;;;;;;;;;5033408;28;20041;-43
2022/04/09 05:36:17;;;;;;;7.55;3.20;;;;;;;;;;5033662;28;20026;-39
2022/04/09 05:38:43;;;;;;;7.60;2.53;;;;;;;;;;5033926;28;20477;-39
2022/04/09 05:41:10;;;;;;;10.57;3.63;;;;;;;;;;5033320;28;20032;-39
2022/04/09 05:43:36;;;;;;;33.72;15.52;;;;;;;;;;5033185;28;20029;-37
2022/04/09 05:46:02;;;;;;;16.95;8.27;;;;;;;;;;5033495;28;20021;-41
2022/04/09 05:48:28;;;;;;;8.23;3.17;;;;;;;;;;5033277;28;20469;-39
2022/04/09 05:50:54;;;;;;;5.90;1.80;;;;;;;;;;5032878;28;20049;-43
2022/04/09 05:53:20;;;;;;;4.75;1.60;;;;;;;;;;5032946;28;20084;-40
2022/04/09 05:55:46;;;;;;;6.85;2.30;;;;;;;;;;5033013;28;20029;-40
2022/04/09 05:58:12;;;;;;;8.18;3.03;;;;;;;;;;5046880;28;20029;-38
2022/04/09 06:00:38;;;;;;;6.63;1.92;;;;;;;;;;5053357;28;20107;-38
2022/04/09 06:03:05;;;;;;;6.85;1.80;;;;;;;;;;5052985;28;20053;-40
2022/04/09 06:05:31;;;;;;;6.45;3.13;;;;;;;;;;5052943;28;20025;-40
2022/04/09 06:07:57;;;;;;;12.50;2.80;;;;;;;;;;5053249;28;20032;-43
2022/04/09 06:10:23;;;;;;;5.03;1.70;;;;;;;;;;5052974;28;20033;-40
2022/04/09 06:12:49;;;;;;;12.77;2.83;;;;;;;;;;5052734;28;20032;-42
2022/04/09 06:15:15;;;;;;;7.68;2.25;;;;;;;;;;5052855;28;20033;-38
2022/04/09 06:17:41;;;;;;;7.43;1.85;;;;;;;;;;5053150;28;20022;-40
2022/04/09 06:20:07;;;;;;;10.18;1.48;;;;;;;;;;5053085;28;20053;-43
2022/04/09 06:22:34;;;;;;;3.55;1.48;;;;;;;;;;5052644;28;20017;-52
2022/04/09 06:25:00;;;;;;;8.32;1.70;;;;;;;;;;5052601;28;20033;-47
2022/04/09 06:27:26;;;;;;;7.07;2.17;;;;;;;;;;5052802;28;20029;-47
2022/04/09 06:29:53;;;;;;;7.32;1.80;;;;;;;;;;5052693;28;20039;-53
2022/04/09 06:32:19;;;;;;;5.55;2.10;;;;;;;;;;5052572;28;20017;-49
2022/04/09 06:34:45;;;;;;;8.38;2.30;;;;;;;;;;5052972;28;20021;-43
2022/04/09 06:37:11;;;;;;;7.30;1.90;;;;;;;;;;5053036;28;20025;-47
2022/04/09 06:39:37;;;;;;;8.98;2.03;;;;;;;;;;5052869;28;20381;-47
2022/04/09 06:42:03;;;;;;;5.20;1.65;;;;;;;;;;5052712;28;20025;-49
2022/04/09 06:44:29;;;;;;;7.65;1.92;;;;;;;;;;5052407;28;20385;-48
2022/04/09 06:46:55;;;;;;;10.07;1.80;;;;;;;;;;5052887;28;20423;-41
2022/04/09 06:49:24;;;;;;;8.15;2.28;;;;;;;;;;5052799;28;20075;-53
2022/04/09 06:51:50;;;;;;;5.22;1.85;;;;;;;;;;5052153;28;20019;-44
2022/04/09 06:54:16;;;;;;;4.82;2.00;;;;;;;;;;5052601;28;20086;-46
2022/04/09 06:56:44;;;;;;;5.38;2.03;;;;;;;;;;5054413;28;20036;-53
2022/04/09 06:59:10;;;;;;;9.23;2.35;;;;;;;;;;5056119;28;20171;-53
2022/04/09 07:01:37;;;;;;;7.13;1.88;;;;;;;;;;5037711;28;20116;-49
2022/04/09 07:04:03;;;;;;;4.20;1.92;;;;;;;;;;5055957;28;20049;-46
2022/04/09 07:06:31;;;;;;;4.68;1.92;;;;;;;;;;5056255;28;20023;-51
2022/04/09 07:08:57;;;;;;;8.02;2.50;;;;;;;;;;5055858;28;20025;-51
2022/04/09 07:11:24;;;;;;;14.75;4.30;;;;;;;;;;5055514;28;20017;-53
2022/04/09 07:13:50;;;;;;;5.97;2.65;;;;;;;;;;5052528;28;21338;-52
2022/04/09 07:16:16;;;;;;;12.27;2.83;;;;;;;;;;5035833;28;20075;-44
2022/04/09 07:18:42;;;;;;;7.53;2.30;;;;;;;;;;5035908;28;20032;-50
2022/04/09 07:21:08;;;;;;;9.82;2.25;;;;;;;;;;5035812;28;20025;-52
2022/04/09 07:23:34;;;;;;;7.60;2.40;;;;;;;;;;5052158;28;20548;-42
2022/04/09 07:26:05;;;;;;;7.35;1.70;;;;;;;;;;5055220;28;20037;-52
2022/04/09 07:28:34;;;;;;;9.57;1.85;;;;;;;;;;5055415;28;20064;-39
2022/04/09 07:31:00;;;;;;;6.55;1.95;;;;;;;;;;5055512;28;20100;-49
2022/04/09 07:33:26;;;;;;;6.38;1.60;;;;;;;;;;5055214;28;20029;-47
2022/04/09 07:35:53;;;;;;;9.48;2.00;;;;;;;;;;5055475;28;20146;-44
2022/04/09 07:38:19;;;;;;;4.93;1.50;;;;;;;;;;5055503;28;20052;-52
2022/04/09 07:40:45;;;;;;;8.35;1.80;;;;;;;;;;5055451;28;20120;-47
2022/04/09 07:43:11;;;;;;;6.57;2.25;;;;;;;;;;5037629;28;20079;-40
2022/04/09 07:45:38;;;;;;;8.20;2.33;;;;;;;;;;5053009;28;20096;-47
2022/04/09 07:48:05;;;;;;;5.25;1.83;;;;;;;;;;5054230;28;20373;-45
2022/04/09 07:50:33;;;;;;;7.60;3.80;;;;;;;;;;5055285;28;20503;-42
2022/04/09 07:53:00;;;;;;;9.40;3.45;;;;;;;;;;5054671;28;20063;-52
2022/04/09 07:55:26;;;;;;;18.00;9.13;;;;;;;;;;5054888;28;20082;-43
2022/04/09 07:57:52;;;;;;;16.30;6.28;;;;;;;;;;5054898;28;20483;-53
2022/04/09 08:00:19;;;;;;;8.80;2.80;;;;;;;;;;5055045;28;20025;-52
2022/04/09 08:02:45;;;;;;;10.77;2.63;;;;;;;;;;5055002;28;20021;-44
2022/04/09 08:05:11;;;;;;;31.20;13.65;;;;;;;;;;5036857;28;20579;-43
2022/04/09 08:07:38;;;;;;;14.25;4.78;;;;;;;;;;5053416;28;20342;-38
2022/04/09 08:10:05;;;;;;;11.02;3.85;;;;;;;;;;5044543;28;20035;-45
2022/04/09 08:12:31;;;;;;;11.40;4.90;;;;;;;;;;5043523;28;20017;-45
2022/04/09 08:14:58;;;;;;;9.82;3.10;;;;;;;;;;5043520;28;20037;-41
2022/04/09 08:17:24;;;;;;;8.68;3.05;;;;;;;;;;5045183;28;20021;-40
2022/04/09 08:19:50;;;;;;;6.47;2.53;;;;;;;;;;5043652;28;20022;-48
2022/04/09 08:22:18;;;;;;;38.33;4.97;;;;;;;;;;5043514;28;20013;-44
2022/04/09 08:24:45;;;;;;;22.70;7.10;;;;;;;;;;5044748;28;20033;-41
2022/04/09 08:27:11;;;;;;;39.72;17.73;;;;;;;;;;5043356;28;20041;-39
2022/04/09 08:29:40;;;;;;;47.47;25.42;;;;;;;;;;5043436;28;20052;-43
2022/04/09 08:32:10;;;;;;;84.03;39.72;;;;;;;;;;5045483;28;20013;-45
2022/04/09 08:34:37;;;;;;;26.77;13.52;;;;;;;;;;5044210;28;20087;-40
2022/04/09 08:37:06;;;;;;;13.00;5.38;;;;;;;;;;5034526;28;20021;-41
2022/04/09 08:39:33;;;;;;;17.88;6.82;;;;;;;;;;5039335;28;20032;-39
2022/04/09 08:41:59;;;;;;;19.73;3.78;;;;;;;;;;5043791;28;20100;-39
2022/04/09 08:44:26;;;;;;;10.70;2.53;;;;;;;;;;5042687;28;20084;-38
2022/04/09 08:46:54;;;;;;;8.25;4.47;;;;;;;;;;5042642;28;20465;-41
2022/04/09 08:49:24;;;;;;;11.20;4.57;;;;;;;;;;5042384;28;20060;-46
2022/04/09 08:51:50;;;;;;;9.57;3.25;;;;;;;;;;5042008;28;20036;-40
2022/04/09 08:54:17;;;;;;;7.07;3.03;;;;;;;;;;5043495;28;20108;-46
2022/04/09 08:56:47;;;;;;;17.92;7.30;;;;;;;;;;5043887;28;20453;-45
2022/04/09 08:59:13;;;;;;;14.35;5.22;;;;;;;;;;5044069;28;20035;-38
2022/04/09 09:01:39;;;;;;;17.25;9.63;;;;;;;;;;5041591;28;20104;-39
2022/04/09 09:04:05;;;;;;;16.42;7.45;;;;;;;;;;5044380;28;20422;-43
2022/04/09 09:06:34;;;;;;;23.77;12.45;;;;;;;;;;5043120;28;20017;-45
2022/04/09 09:09:01;;;;;;;23.02;12.77;;;;;;;;;;5042060;28;20087;-45
2022/04/09 09:11:31;;;;;;;41.70;25.02;;;;;;;;;;5043685;28;20020;-45
2022/04/09 09:13:58;;;;;;;14.75;8.23;;;;;;;;;;5043773;28;20040;-46
2022/04/09 09:16:28;;;;;;;25.73;12.10;;;;;;;;;;5044931;28;20465;-38
2022/04/09 09:18:56;;;;;;;20.33;12.02;;;;;;;;;;5042399;28;20025;-38
2022/04/09 09:21:28;;;;;;;41.17;23.52;;;;;;;;;;5043980;28;20071;-40
2022/04/09 09:24:08;;;;;;;19.38;7.45;;;;;;;;;;5026480;28;20025;-44
2022/04/09 09:26:41;;;;;;;27.63;13.95;;;;;;;;;;5042897;28;20033;-40
2022/04/09 09:29:14;;;;;;;25.40;12.40;;;;;;;;;;5042411;28;20036;-40
2022/04/09 09:31:46;;;;;;;21.45;12.07;;;;;;;;;;5041802;28;20014;-39
2022/04/09 09:34:13;;;;;;;17.35;6.80;;;;;;;;;;5042593;28;20111;-47
2022/04/09 09:36:41;;;;;;;12.93;6.57;;;;;;;;;;5029516;28;20021;-38
2022/04/09 09:39:09;;;;;;;9.07;4.68;;;;;;;;;;5023997;28;20524;-41
2022/04/09 09:41:36;;;;;;;7.55;4.28;;;;;;;;;;5022742;28;20120;-44
2022/04/09 09:44:05;;;;;;;22.88;7.90;;;;;;;;;;5023932;28;20033;-40
2022/04/09 09:46:35;;;;;;;27.48;13.57;;;;;;;;;;5023455;28;20028;-46
2022/04/09 09:49:01;;;;;;;17.25;8.15;;;;;;;;;;5022334;28;20140;-45
2022/04/09 09:51:27;;;;;;;18.40;10.25;;;;;;;;;;5022669;28;20068;-44
2022/04/09 09:54:04;;;;;;;18.55;8.93;;;;;;;;;;5023246;28;20030;-39
2022/04/09 09:56:37;;;;;;;30.08;14.82;;;;;;;;;;5023388;28;20025;-44
2022/04/09 09:59:07;;;;;;;17.30;9.50;;;;;;;;;;5022772;28;20124;-44
2022/04/09 10:01:40;;;;;;;25.00;13.63;;;;;;;;;;5015093;28;20021;-41
2022/04/09 10:04:11;;;;;;;19.77;11.13;;;;;;;;;;5022593;28;20029;-42
2022/04/09 10:06:38;;;;;;;19.77;7.80;;;;;;;;;;5021959;28;20029;-39
2022/04/09 10:09:05;;;;;;;24.83;10.32;;;;;;;;;;5022361;28;20719;-45
2022/04/09 10:11:34;;;;;;;13.05;6.00;;;;;;;;;;5022499;28;20301;-41
2022/04/09 10:14:01;;;;;;;9.15;3.92;;;;;;;;;;5022123;28;20064;-45
2022/04/09 10:16:28;;;;;;;22.58;9.80;;;;;;;;;;5022794;28;20086;-44
2022/04/09 10:18:57;;;;;;;11.35;4.63;;;;;;;;;;5021708;28;20026;-44
2022/04/09 10:21:23;;;;;;;5.45;2.60;;;;;;;;;;5022721;28;20477;-46
2022/04/09 10:23:52;;;;;;;5.00;2.65;;;;;;;;;;5021638;28;20160;-47
2022/04/09 10:26:18;;;;;;;10.60;2.53;;;;;;;;;;5021726;28;20075;-48
2022/04/09 10:28:48;;;;;;;7.40;2.63;;;;;;;;;;5023102;28;20160;-48
2022/04/09 10:31:24;;;;;;;8.43;2.33;;;;;;;;;;5022231;28;20477;-40
2022/04/09 10:33:56;;;;;;;12.00;4.95;;;;;;;;;;5023712;28;20489;-40
2022/04/09 10:36:41;;;;;;;9.68;3.38;;;;;;;;;;5023591;28;20497;-49
2022/04/09 10:39:36;;;;;;;3.50;2.60;;;;;;;;;;5024606;28;20489;-48
2022/04/09 10:42:06;;;;;;;8.77;4.00;;;;;;;;;;5027242;28;20021;-51
2022/04/09 10:44:44;;;;;;;9.43;3.60;;;;;;;;;;5023956;28;20029;-49
2022/04/09 10:47:11;;;;;;;9.68;3.60;;;;;;;;;;5025522;28;20049;-48
2022/04/09 10:49:40;;;;;;;7.72;2.97;;;;;;;;;;5025478;28;20018;-48
2022/04/09 10:52:16;;;;;;;7.30;2.58;;;;;;;;;;5025467;28;20034;-50
2022/04/09 10:55:01;;;;;;;9.93;5.13;;;;;;;;;;5025267;28;20504;-40
2022/04/09 10:57:27;;;;;;;10.90;5.18;;;;;;;;;;5025426;28;20045;-47
2022/04/09 10:59:59;;;;;;;9.85;3.78;;;;;;;;;;5025031;28;20545;-44
2022/04/09 11:02:26;;;;;;;11.30;3.40;;;;;;;;;;5025499;28;20052;-44
2022/04/09 11:04:52;;;;;;;13.00;5.47;;;;;;;;;;5025499;28;20563;-43
2022/04/09 11:07:27;;;;;;;9.30;4.47;;;;;;;;;;5024477;28;20017;-44
2022/04/09 11:10:03;;;;;;;14.38;5.53;;;;;;;;;;5025191;28;20041;-43
2022/04/09 11:12:30;;;;;;;30.65;5.93;;;;;;;;;;5026318;28;20516;-46
2022/04/09 11:15:01;;;;;;;33.25;8.05;;;;;;;;;;5025148;28;20037;-40
2022/04/09 11:17:27;;;;;;;27.13;4.43;;;;;;;;;;5024997;28;20406;-43
2022/04/09 11:19:53;;;;;;;47.63;9.45;;;;;;;;;;5025882;28;20033;-45
2022/04/09 11:22:22;;;;;;;42.97;6.95;;;;;;;;;;5024563;28;20338;-46
2022/04/09 11:24:48;;;;;;;45.20;6.85;;;;;;;;;;5024649;28;20457;-47
2022/04/09 11:27:14;;;;;;;28.23;4.30;;;;;;;;;;5024509;28;20045;-42
2022/04/09 11:29:44;;;;;;;26.08;4.38;;;;;;;;;;5024470;28;20025;-46
2022/04/09 11:32:18;;;;;;;26.52;5.03;;;;;;;;;;5024732;28;20025;-43
2022/04/09 11:34:48;;;;;;;18.60;4.75;;;;;;;;;;5024532;28;20029;-44
2022/04/09 11:37:14;;;;;;;23.95;4.85;;;;;;;;;;5025978;28;20524;-46
2022/04/09 11:39:41;;;;;;;14.25;4.38;;;;;;;;;;5023965;28;20029;-43
2022/04/09 11:42:07;;;;;;;13.60;2.85;;;;;;;;;;5023603;28;20021;-42
2022/04/09 11:44:36;;;;;;;17.95;4.20;;;;;;;;;;5022595;28;20156;-41
2022/04/09 11:47:18;;;;;;;7.68;2.20;;;;;;;;;;5023890;28;20013;-48
2022/04/09 11:49:47;;;;;;;8.25;2.10;;;;;;;;;;5023760;28;20025;-41
2022/04/09 11:52:13;;;;;;;11.65;3.00;;;;;;;;;;5024264;28;20052;-47
2022/04/09 11:54:40;;;;;;;12.10;2.78;;;;;;;;;;5023889;28;20148;-42
2022/04/09 11:57:12;;;;;;;11.77;3.20;;;;;;;;;;5023950;28;20265;-45
2022/04/09 11:59:40;;;;;;;14.73;3.67;;;;;;;;;;5025289;28;20039;-49
2022/04/09 12:02:16;;;;;;;7.82;2.47;;;;;;;;;;5024887;28;20032;-40
2022/04/09 12:04:42;;;;;;;19.27;3.78;;;;;;;;;;5023630;28;20079;-45
2022/04/09 12:07:08;;;;;;;12.55;3.47;;;;;;;;;;5023316;28;20028;-45
2022/04/09 12:09:36;;;;;;;14.85;2.53;;;;;;;;;;5016610;28;20127;-46
2022/04/09 12:12:02;;;;;;;29.55;5.25;;;;;;;;;;5024786;28;20021;-49
2022/04/09 12:14:28;;;;;;;39.75;3.55;;;;;;;;;;5023704;28;20036;-45
2022/04/09 12:16:57;;;;;;;30.70;2.72;;;;;;;;;;5021751;28;20532;-46
2022/04/09 12:19:31;;;;;;;38.50;3.53;;;;;;;;;;5023592;28;20034;-48
2022/04/09 12:22:10;;;;;;;15.57;2.78;;;;;;;;;;5050481;28;20025;-40
2022/04/09 12:24:46;;;;;;;28.80;2.70;;;;;;;;;;5054294;28;20032;-39
2022/04/09 12:27:12;;;;;;;20.17;2.22;;;;;;;;;;5054079;28;20072;-42
2022/04/09 12:29:46;;;;;;;33.10;3.13;;;;;;;;;;5040679;28;20032;-44
2022/04/09 12:32:14;;;;;;;24.42;2.90;;;;;;;;;;5035356;28;20090;-44
2022/04/09 12:34:52;;;;;;;32.35;2.90;;;;;;;;;;5023458;28;20173;-45
2022/04/09 12:37:23;;;;;;;17.58;2.47;;;;;;;;;;5025717;28;20531;-39
2022/04/09 12:39:50;;;;;;;16.88;1.50;;;;;;;;;;5025023;28;20025;-40
2022/04/09 12:42:16;;;;;;;16.58;1.60;;;;;;;;;;5024760;28;20033;-43
2022/04/09 12:44:45;;;;;;;7.50;1.85;;;;;;;;;;5039630;28;20106;-41
2022/04/09 12:47:12;;;;;;;11.25;2.20;;;;;;;;;;5025816;28;20371;-46
2022/04/09 12:49:41;;;;;;;22.50;2.60;;;;;;;;;;5025294;28;20025;-39
2022/04/09 12:52:09;;;;;;;18.90;3.05;;;;;;;;;;5025365;28;20063;-43
2022/04/09 12:54:35;;;;;;;23.98;3.38;;;;;;;;;;5024169;28;20384;-46
2022/04/09 12:57:08;;;;;;;12.15;2.45;;;;;;;;;;5024900;28;20029;-47
2022/04/09 12:59:34;;;;;;;30.00;3.83;;;;;;;;;;5024905;28;20029;-44
2022/04/09 13:02:01;;;;;;;35.03;5.85;;;;;;;;;;5008708;28;20052;-45
2022/04/09 13:04:27;;;;;;;49.50;5.85;;;;;;;;;;5024633;28;20029;-45
2022/04/09 13:06:55;;;;;;;59.22;6.43;;;;;;;;;;5024607;28;20021;-44
2022/04/09 13:09:21;;;;;;;24.77;4.00;;;;;;;;;;5024241;28;20347;-47
2022/04/09 13:11:47;;;;;;;17.27;3.42;;;;;;;;;;5024883;28;20479;-47
2022/04/09 13:14:13;;;;;;;9.88;4.10;;;;;;;;;;5024543;28;20029;-45
2022/04/09 13:16:39;;;;;;;13.18;4.03;;;;;;;;;;5024945;28;20028;-49
2022/04/09 13:19:06;;;;;;;6.00;3.40;;;;;;;;;;5024584;28;21118;-47
2022/04/09 13:21:32;;;;;;;7.88;3.72;;;;;;;;;;5007917;28;20844;-45
2022/04/09 13:23:58;;;;;;;6.20;3.03;;;;;;;;;;5024512;28;20425;-42
2022/04/09 13:26:24;;;;;;;4.55;2.85;;;;;;;;;;5024082;28;20128;-42
2022/04/09 13:28:50;;;;;;;7.53;3.28;;;;;;;;;;5024727;28;20037;-40
2022/04/09 13:31:17;;;;;;;10.93;4.78;;;;;;;;;;5024323;28;20053;-40
2022/04/09 13:33:43;;;;;;;8.90;4.38;;;;;;;;;;5024328;28;20139;-44
2022/04/09 13:36:09;;;;;;;7.50;3.63;;;;;;;;;;5023780;28;21238;-43
2022/04/09 13:38:35;;;;;;;7.30;3.58;;;;;;;;;;5024628;28;20081;-46
2022/04/09 13:41:01;;;;;;;5.40;3.88;;;;;;;;;;5023929;28;20028;-45
2022/04/09 13:43:27;;;;;;;8.65;3.25;;;;;;;;;;5023987;28;20552;-39
2022/04/09 13:45:53;;;;;;;8.38;3.15;;;;;;;;;;5024059;28;20147;-41
2022/04/09 13:48:20;;;;;;;5.45;2.70;;;;;;;;;;5024303;28;20598;-44
2022/04/09 13:50:46;;;;;;;5.95;3.75;;;;;;;;;;5024206;28;20021;-40
2022/04/09 13:53:14;;;;;;;3.17;2.45;;;;;;;;;;5024008;28;20065;-43
2022/04/09 13:55:41;;;;;;;4.93;3.45;;;;;;;;;;5023999;28;20374;-46
2022/04/09 13:58:09;;;;;;;6.68;3.70;;;;;;;;;;5024143;28;20158;-42
2022/04/09 14:00:35;;;;;;;11.80;3.97;;;;;;;;;;5024266;28;20582;-41
2022/04/09 14:03:02;;;;;;;5.68;3.65;;;;;;;;;;5024356;28;20017;-44
2022/04/09 14:05:30;;;;;;;8.35;4.25;;;;;;;;;;5025495;28;20112;-45
2022/04/09 14:07:56;;;;;;;5.22;3.47;;;;;;;;;;5028165;28;20040;-42
2022/04/09 14:10:22;;;;;;;11.63;5.20;;;;;;;;;;5028020;28;20153;-44
2022/04/09 14:12:48;;;;;;;8.80;4.47;;;;;;;;;;5028282;28;20035;-44
2022/04/09 14:15:14;;;;;;;8.02;3.35;;;;;;;;;;5027766;28;20041;-44
2022/04/09 14:17:40;;;;;;;6.28;4.20;;;;;;;;;;5028173;28;20546;-47
2022/04/09 14:20:07;;;;;;;6.47;4.18;;;;;;;;;;5027735;28;20028;-48
2022/04/09 14:22:33;;;;;;;10.35;4.68;;;;;;;;;;5051310;28;20361;-45
2022/04/09 14:24:59;;;;;;;11.15;4.40;;;;;;;;;;5056980;28;20334;-39
2022/04/09 14:27:25;;;;;;;8.63;5.07;;;;;;;;;;5056791;28;20044;-38
2022/04/09 14:29:51;;;;;;;7.78;4.20;;;;;;;;;;5056911;28;20025;-39
2022/04/09 14:32:18;;;;;;;8.15;4.60;;;;;;;;;;5056718;28;20524;-38
2022/04/09 14:34:44;;;;;;;12.07;3.63;;;;;;;;;;5056677;28;20033;-38
2022/04/09 14:37:11;;;;;;;8.32;3.63;;;;;;;;;;5056962;28;20021;-44